createdAt,value
2022-12-14T00:02:11.231Z,0.81
2022-12-14T00:07:04.413Z,1.13
2022-12-14T00:11:57.635Z,1.13
2022-12-14T00:16:53.124Z,1.23
2022-12-14T00:21:47.282Z,1.33
2022-12-14T00:26:42.607Z,0.99
2022-12-14T00:31:36.564Z,1.30
2022-12-14T00:36:32.268Z,1.21
2022-12-14T00:41:25.509Z,1.38
2022-12-14T00:46:19.277Z,1.40
2022-12-14T00:51:14.943Z,0.51
2022-12-14T00:56:10.331Z,0.36
2022-12-14T01:01:08.257Z,-0.17
2022-12-14T01:11:33.276Z,1.19
2022-12-14T01:16:26.638Z,0.67
2022-12-14T01:21:22.141Z,0.71
2022-12-14T01:26:16.842Z,0.22
2022-12-14T01:31:13.789Z,0.68
2022-12-14T01:36:45.983Z,1.17
2022-12-14T01:41:43.347Z,-0.47
2022-12-14T01:46:44.151Z,-0.84
2022-12-14T01:51:59.870Z,0.63
2022-12-14T01:56:55.434Z,0.53
2022-12-14T02:01:55.284Z,-0.94
2022-12-14T02:06:54.173Z,0.03
2022-12-14T02:11:57.142Z,0.41
2022-12-14T02:16:54.423Z,-0.50
2022-12-14T02:22:15.352Z,0.72
2022-12-14T02:27:39.471Z,0.76
2022-12-14T02:32:51.477Z,0.38
2022-12-14T02:37:55.532Z,-0.05
2022-12-14T02:43:03.094Z,0.85
2022-12-14T02:48:02.835Z,-0.95
2022-12-14T02:53:06.293Z,0.68
2022-12-14T02:58:03.045Z,0.41
2022-12-14T03:02:59.901Z,0.40
2022-12-14T03:07:57.028Z,0.60
2022-12-14T03:12:55.739Z,0.41
2022-12-14T03:17:52.776Z,-0.50
2022-12-14T03:22:56.591Z,0.16
2022-12-14T03:27:54.921Z,0.09
2022-12-14T03:32:50.982Z,0.29
2022-12-14T03:37:58.284Z,0.62
2022-12-14T03:43:35.649Z,0.35
2022-12-14T03:48:51.558Z,0.69
2022-12-14T03:53:54.100Z,-0.62
2022-12-14T03:58:57.681Z,0.76
2022-12-14T04:03:56.553Z,0.74
2022-12-14T04:08:59.692Z,-0.21
2022-12-14T04:14:20.137Z,-0.54
2022-12-14T04:19:21.228Z,0.34
2022-12-14T04:24:40.847Z,0.78
2022-12-14T04:30:05.391Z,0.48
2022-12-14T04:35:04.079Z,-1.09
2022-12-14T04:40:03.950Z,0.76
2022-12-14T04:45:03.925Z,0.78
2022-12-14T04:50:04.702Z,-0.71
2022-12-14T04:55:06.031Z,-0.76
2022-12-14T05:00:01.615Z,-0.54
2022-12-14T05:05:00.985Z,-0.68
2022-12-14T05:09:58.623Z,0.73
2022-12-14T05:15:00.453Z,0.11
2022-12-14T05:19:57.423Z,0.14
2022-12-14T05:24:51.281Z,0.52
2022-12-14T05:29:44.768Z,-1.11
2022-12-14T05:34:39.558Z,0.40
2022-12-14T05:39:33.011Z,0.66
2022-12-14T05:44:26.332Z,-0.67
2022-12-14T05:49:19.691Z,0.37
2022-12-14T05:54:19.215Z,0.73
2022-12-14T05:59:16.020Z,0.59
2022-12-14T06:04:09.478Z,-0.74
2022-12-14T06:09:02.918Z,0.81
2022-12-14T06:13:57.638Z,0.31
2022-12-14T06:18:55.224Z,0.87
2022-12-14T06:23:51.140Z,0.45
2022-12-14T06:28:45.452Z,0.43
2022-12-14T06:33:43.012Z,-0.41
2022-12-14T06:38:51.948Z,-0.60
2022-12-14T06:44:13.399Z,0.48
2022-12-14T07:01:21.258Z,0.26
2022-12-14T07:13:45.796Z,1.41
2022-12-14T07:18:54.846Z,0.13
2022-12-14T07:23:56.659Z,1.55
2022-12-14T07:28:52.661Z,1.51
2022-12-14T07:33:48.337Z,1.58
2022-12-14T07:38:43.141Z,1.77
2022-12-14T07:43:36.953Z,2.03
2022-12-14T07:48:45.292Z,2.27
2022-12-14T07:53:40.240Z,1.81
2022-12-14T07:58:34.017Z,1.80
2022-12-14T08:03:27.646Z,2.35
2022-12-14T08:08:24.555Z,2.65
2022-12-14T08:13:17.778Z,2.72
2022-12-14T08:18:11.004Z,2.76
2022-12-14T08:23:07.266Z,2.78
2022-12-14T08:28:02.885Z,2.83
2022-12-14T08:32:57.337Z,2.37
2022-12-14T08:38:03.982Z,2.73
2022-12-14T08:42:57.331Z,3.02
2022-12-14T08:47:51.869Z,2.67
2022-12-14T08:52:50.671Z,3.15
2022-12-14T08:57:46.038Z,3.06
2022-12-14T09:02:39.764Z,2.85
2022-12-14T09:07:37.429Z,2.98
2022-12-14T09:12:31.116Z,3.59
2022-12-14T09:17:29.494Z,3.19
2022-12-14T09:22:22.998Z,3.52
2022-12-14T09:27:17.974Z,3.88
2022-12-14T09:32:16.870Z,3.76
2022-12-14T09:37:10.284Z,3.31
2022-12-14T09:42:15.272Z,3.78
2022-12-14T09:47:17.001Z,3.94
2022-12-14T09:52:17.250Z,3.94
2022-12-14T09:57:16.082Z,4.06
2022-12-14T10:02:31.390Z,3.71
2022-12-14T10:07:34.131Z,3.61
2022-12-14T10:12:50.447Z,3.83
2022-12-14T10:18:49.939Z,4.62
2022-12-14T10:23:39.785Z,4.79
2022-12-14T10:28:43.161Z,4.95
2022-12-14T10:33:43.857Z,4.72
2022-12-14T10:38:46.311Z,5.08
2022-12-14T10:43:49.523Z,4.90
2022-12-14T10:48:52.494Z,4.70
2022-12-14T10:53:50.852Z,5.04
2022-12-14T10:58:46.781Z,5.37
2022-12-14T11:03:53.277Z,5.03
2022-12-14T11:08:49.029Z,6.17
2022-12-14T11:13:49.519Z,6.34
2022-12-14T11:18:42.797Z,7.03
2022-12-14T11:23:40.588Z,7.30
2022-12-14T11:28:38.988Z,7.31
2022-12-14T11:33:37.618Z,7.03
2022-12-14T11:38:31.809Z,6.52
2022-12-14T11:43:34.109Z,6.37
2022-12-14T11:48:29.281Z,6.77
2022-12-14T11:54:16.816Z,5.77
2022-12-14T11:59:24.478Z,6.41
2022-12-14T12:04:18.996Z,6.53
2022-12-14T12:09:26.571Z,6.20
2022-12-14T12:14:28.730Z,6.38
2022-12-14T12:19:28.513Z,6.36
2022-12-14T12:24:25.328Z,6.11
2022-12-14T12:29:27.185Z,6.24
2022-12-14T12:34:25.917Z,6.40
2022-12-14T12:39:25.423Z,6.42
2022-12-14T12:44:29.044Z,6.28
2022-12-14T12:49:23.194Z,6.32
2022-12-14T12:54:24.912Z,6.23
2022-12-14T12:59:21.369Z,6.06
2022-12-14T13:04:27.883Z,6.20
2022-12-14T13:09:34.456Z,5.99
2022-12-14T13:14:33.272Z,6.05
2022-12-14T13:19:54.883Z,6.22
2022-12-14T13:24:58.885Z,6.14
2022-12-14T13:30:05.605Z,6.30
2022-12-14T13:35:16.118Z,6.23
2022-12-14T13:40:54.439Z,6.10
2022-12-14T13:45:50.164Z,6.21
2022-12-14T13:50:54.202Z,5.87
2022-12-14T13:55:56.738Z,6.27
2022-12-14T14:01:04.277Z,6.07
2022-12-14T14:06:02.158Z,5.48
2022-12-14T14:11:20.579Z,6.19
2022-12-14T14:16:28.402Z,6.26
2022-12-14T14:22:06.177Z,6.27
2022-12-14T14:27:01.703Z,6.21
2022-12-14T14:32:00.260Z,5.97
2022-12-14T14:36:55.570Z,5.92
2022-12-14T14:41:53.567Z,5.59
2022-12-14T14:46:50.788Z,6.22
2022-12-14T14:51:44.285Z,5.57
2022-12-14T14:56:40.202Z,5.50
2022-12-14T15:01:33.799Z,5.18
2022-12-14T15:06:30.291Z,5.74
2022-12-14T15:11:28.011Z,5.73
2022-12-14T15:17:00.664Z,5.46
2022-12-14T15:22:00.750Z,5.57
2022-12-14T15:26:57.406Z,5.57
2022-12-14T15:32:00.828Z,5.74
2022-12-14T15:36:54.980Z,5.90
2022-12-14T15:42:02.446Z,5.61
2022-12-14T15:47:03.499Z,5.40
2022-12-14T15:52:01.013Z,5.93
2022-12-14T15:56:57.126Z,5.96
2022-12-14T16:01:58.950Z,5.04
2022-12-14T16:07:08.130Z,5.99
2022-12-14T16:12:09.054Z,6.00
2022-12-14T16:17:04.484Z,5.95
2022-12-14T16:22:24.676Z,5.28
2022-12-14T16:27:21.275Z,5.99
2022-12-14T16:32:17.627Z,5.80
2022-12-14T16:37:34.590Z,5.81
2022-12-14T16:42:32.919Z,6.04
2022-12-14T16:47:45.785Z,6.07
2022-12-14T16:52:41.850Z,5.88
2022-12-14T16:57:41.536Z,5.77
2022-12-14T17:02:40.612Z,5.88
2022-12-14T17:07:36.470Z,5.78
2022-12-14T17:12:30.012Z,5.75
2022-12-14T17:17:33.374Z,6.19
2022-12-14T17:22:30.002Z,5.99
2022-12-14T17:27:26.796Z,6.02
2022-12-14T17:32:27.066Z,5.56
2022-12-14T17:37:22.384Z,6.19
2022-12-14T17:42:18.244Z,6.00
2022-12-14T17:47:14.175Z,6.24
2022-12-14T17:52:16.976Z,5.70
2022-12-14T17:57:17.113Z,5.60
2022-12-14T18:02:28.208Z,5.02
2022-12-14T18:07:23.217Z,5.02
2022-12-14T18:12:25.010Z,5.27
2022-12-14T18:17:18.816Z,6.31
2022-12-14T18:22:14.407Z,6.15
2022-12-14T18:27:09.610Z,5.35
2022-12-14T18:32:03.392Z,6.37
2022-12-14T18:36:59.693Z,5.76
2022-12-14T18:41:52.996Z,5.84
2022-12-14T18:46:50.206Z,6.35
2022-12-14T18:51:44.109Z,6.29
2022-12-14T18:56:38.093Z,6.32
2022-12-14T19:01:31.553Z,6.60
2022-12-14T19:06:44.228Z,5.09
2022-12-14T19:11:42.053Z,5.55
2022-12-14T19:16:45.732Z,6.31
2022-12-14T19:21:41.763Z,6.44
2022-12-14T19:26:35.141Z,6.79
2022-12-14T19:31:34.918Z,6.10
2022-12-14T19:36:29.988Z,5.68
2022-12-14T19:41:25.007Z,6.74
2022-12-14T19:46:23.226Z,6.84
2022-12-14T19:51:17.430Z,6.91
2022-12-14T19:56:11.628Z,6.61
2022-12-14T20:01:11.103Z,6.17
2022-12-14T20:06:06.044Z,6.00
2022-12-14T20:10:59.725Z,7.00
2022-12-14T20:16:02.523Z,7.02
2022-12-14T20:21:07.741Z,6.82
2022-12-14T20:26:11.652Z,7.03
2022-12-14T20:31:12.043Z,6.89
2022-12-14T20:36:11.418Z,7.06
2022-12-14T20:41:06.262Z,7.06
2022-12-14T20:46:07.028Z,6.60
2022-12-14T20:51:01.694Z,6.44
2022-12-14T20:55:56.920Z,5.75
2022-12-14T21:06:04.448Z,6.87
2022-12-14T21:11:22.452Z,5.87
2022-12-14T21:16:20.093Z,6.39
2022-12-14T21:21:13.378Z,6.39
2022-12-14T21:26:09.647Z,5.60
2022-12-14T21:31:09.431Z,6.02
2022-12-14T21:36:09.695Z,6.17
2022-12-14T21:41:21.344Z,6.09
2022-12-14T21:46:25.500Z,6.46
2022-12-14T21:51:33.459Z,6.73
2022-12-14T21:56:48.976Z,6.95
2022-12-14T22:01:46.745Z,5.77
2022-12-14T22:06:40.443Z,5.77
2022-12-14T22:11:39.430Z,5.71
2022-12-14T22:16:34.711Z,6.86
2022-12-14T22:21:30.828Z,6.32
2022-12-14T22:26:24.712Z,6.62
2022-12-14T22:31:18.231Z,6.94
2022-12-14T22:36:15.131Z,6.12
2022-12-14T22:41:10.306Z,5.74
2022-12-14T22:46:08.159Z,6.34
2022-12-14T22:51:02.550Z,6.73
2022-12-14T22:55:58.693Z,6.37
2022-12-14T23:00:54.329Z,6.00
2022-12-14T23:05:47.880Z,6.83
2022-12-14T23:10:58.604Z,6.81
2022-12-14T23:16:10.814Z,6.79
2022-12-14T23:21:29.248Z,6.08
2022-12-14T23:26:42.630Z,6.38
2022-12-14T23:31:55.863Z,6.80
2022-12-14T23:37:06.847Z,6.79
2022-12-14T23:42:20.192Z,6.55
2022-12-14T23:47:32.381Z,5.16
2022-12-14T23:52:45.940Z,6.11
2022-12-14T23:58:00.135Z,6.24
